createdAt,value
2024-02-10T09:53:41.483Z,0
2024-02-10T09:54:41.422Z,0.857143
2024-02-10T09:55:41.510Z,0.857143
2024-02-10T09:56:41.463Z,0.857143
2024-02-10T09:57:41.451Z,0.857143
2024-02-10T09:58:41.522Z,0.857143
2024-02-10T09:59:41.461Z,0.857143
2024-02-10T10:00:41.548Z,0.857143
2024-02-10T10:01:41.481Z,0
2024-02-10T10:02:41.492Z,0
2024-02-10T10:03:41.579Z,0
2024-02-10T10:04:41.563Z,0
2024-02-10T10:05:41.544Z,0
2024-02-10T10:06:41.505Z,0
2024-02-10T10:07:41.568Z,0
2024-02-10T10:08:41.521Z,0
2024-02-10T10:09:41.533Z,0
2024-02-10T10:10:41.572Z,0
2024-02-10T10:11:41.573Z,0
2024-02-10T10:12:41.567Z,0.857143
2024-02-10T10:13:41.609Z,0.857143
2024-02-10T10:14:41.548Z,1.71429
2024-02-10T10:15:41.589Z,1.71429
2024-02-10T10:16:41.598Z,1.71429
2024-02-10T10:17:41.632Z,2.5
2024-02-10T10:18:41.615Z,2.5
2024-02-10T10:19:41.618Z,2.5
2024-02-10T10:20:41.629Z,1.71429
2024-02-10T10:21:41.622Z,1.71429
2024-02-10T10:22:41.655Z,0.857143
2024-02-10T10:23:41.635Z,0.857143
2024-02-10T10:24:41.643Z,1.71429
2024-02-10T10:25:41.714Z,1.71429
2024-02-10T10:26:41.672Z,1.71429
2024-02-10T10:27:41.681Z,1.71429
2024-02-10T10:28:41.748Z,1.71429
2024-02-10T10:29:41.664Z,1.71429
2024-02-10T10:30:41.676Z,1.71429
2024-02-10T10:31:41.675Z,3.35714
2024-02-10T10:32:41.797Z,2.5
2024-02-10T10:33:41.827Z,1.71429
2024-02-10T10:34:41.749Z,1.71429
2024-02-10T10:35:41.719Z,1.71429
2024-02-10T10:36:41.725Z,0.857143
2024-02-10T10:37:41.798Z,0.857143
2024-02-10T10:38:41.721Z,0.857143
2024-02-10T10:39:41.775Z,0.857143
2024-02-10T10:40:41.800Z,0.857143
2024-02-10T10:41:41.744Z,0.857143
2024-02-10T10:42:41.742Z,0.857143
2024-02-10T10:43:41.766Z,0.857143
2024-02-10T10:44:41.761Z,0.857143
2024-02-10T10:45:41.766Z,0.857143
2024-02-10T10:46:41.798Z,0.857143
2024-02-10T10:47:41.867Z,0.857143
2024-02-10T10:48:42.006Z,0.857143
2024-02-10T10:49:41.904Z,1.71429
2024-02-10T10:50:41.809Z,0.857143
2024-02-10T10:51:41.818Z,1.71429
2024-02-10T10:52:41.854Z,0.857143
2024-02-10T10:53:41.855Z,0.857143
2024-02-10T10:54:41.930Z,1.71429
2024-02-10T10:55:41.884Z,1.71429
2024-02-10T10:56:41.840Z,1.71429
2024-02-10T10:57:41.859Z,0.857143
2024-02-10T10:58:41.939Z,0.857143
2024-02-10T10:59:41.876Z,0.857143
2024-02-10T11:00:41.907Z,0.857143
2024-02-10T11:01:41.954Z,0.857143
2024-02-10T11:02:45.312Z,0.857143
2024-02-10T11:03:41.977Z,1.71429
2024-02-10T11:04:41.919Z,0.857143
2024-02-10T11:05:41.942Z,1.71429
2024-02-10T11:06:41.961Z,1.71429
2024-02-10T11:07:41.960Z,2.5
2024-02-10T11:08:41.962Z,3.35714
2024-02-10T11:09:41.928Z,3.35714
2024-02-10T11:10:41.986Z,4.21429
2024-02-10T11:11:41.949Z,4.21429
2024-02-10T11:12:41.959Z,3.35714
2024-02-10T11:13:42.014Z,2.5
2024-02-10T11:14:42.005Z,2.5
2024-02-10T11:15:42.244Z,2.5
2024-02-10T11:16:42.050Z,2.5
2024-02-10T11:17:42.067Z,3.35714
2024-02-10T11:18:42.088Z,5
2024-02-10T11:19:42.076Z,8.35714
2024-02-10T11:20:42.038Z,7.5
2024-02-10T11:21:42.040Z,7.5
2024-02-10T11:22:42.162Z,6.71429
2024-02-10T11:23:42.048Z,5.85714
2024-02-10T11:24:42.046Z,5
2024-02-10T11:25:42.108Z,4.21429
2024-02-10T11:26:42.087Z,5
2024-02-10T11:27:42.094Z,5
2024-02-10T11:28:42.134Z,4.21429
2024-02-10T11:29:42.104Z,3.35714
2024-02-10T11:30:44.080Z,2.5
2024-02-10T11:31:42.231Z,1.71429
2024-02-10T11:32:42.200Z,1.71429
2024-02-10T11:33:42.302Z,1.71429
2024-02-10T11:34:42.244Z,0.857143
2024-02-10T11:35:42.140Z,0.857143
2024-02-10T11:36:42.172Z,0.857143
2024-02-10T11:37:42.351Z,0.857143
2024-02-10T11:38:42.213Z,0
2024-02-10T11:39:42.159Z,0
2024-02-10T11:40:42.199Z,0
2024-02-10T11:41:42.203Z,0
2024-02-10T11:42:42.189Z,0
2024-02-10T11:43:42.250Z,0
2024-02-10T11:44:42.204Z,0
2024-02-10T11:45:42.227Z,0
2024-02-10T11:46:42.261Z,0
2024-02-10T11:47:42.222Z,0
2024-02-10T11:48:42.334Z,0
2024-02-10T11:49:42.263Z,0.857143
2024-02-10T11:50:52.562Z,0.857143
2024-02-10T11:51:42.259Z,0.857143
2024-02-10T11:52:42.272Z,0.857143
2024-02-10T11:53:42.264Z,0.857143
2024-02-10T11:54:42.279Z,0.857143
2024-02-10T11:55:42.343Z,0.857143
2024-02-10T11:56:42.297Z,0.857143
2024-02-10T11:57:42.309Z,0.857143
2024-02-10T11:58:42.321Z,0.857143
2024-02-10T11:59:42.328Z,0.857143
2024-02-10T12:00:42.377Z,0.857143
2024-02-10T12:01:42.420Z,0.857143
2024-02-10T12:02:42.348Z,0.857143
2024-02-10T12:03:42.378Z,0.857143
2024-02-10T12:04:42.529Z,0.857143
2024-02-10T12:05:42.504Z,0.857143
2024-02-10T12:06:42.368Z,0.857143
2024-02-10T12:07:42.396Z,0.857143
2024-02-10T12:08:42.379Z,0.857143
2024-02-10T12:09:42.401Z,0
2024-02-10T12:10:42.434Z,0
2024-02-10T12:11:44.187Z,0
2024-02-10T12:12:42.414Z,0
2024-02-10T12:13:42.514Z,0
2024-02-10T12:14:42.447Z,0
2024-02-10T12:15:42.440Z,0
2024-02-10T12:16:42.507Z,0
2024-02-10T12:17:42.493Z,0.857143
2024-02-10T12:18:42.518Z,0.857143
2024-02-10T12:19:42.522Z,0.857143
2024-02-10T12:20:42.481Z,0.857143
2024-02-10T12:21:42.683Z,0.857143
2024-02-10T12:22:42.528Z,0.857143
2024-02-10T12:23:43.743Z,0.857143
2024-02-10T12:24:42.509Z,0.857143
2024-02-10T12:25:42.553Z,0.857143
2024-02-10T12:26:42.539Z,0
2024-02-10T12:27:42.549Z,0
2024-02-10T12:28:42.596Z,0
2024-02-10T12:29:42.540Z,0.857143
2024-02-10T12:30:42.546Z,0.857143
2024-02-10T12:31:42.696Z,0.857143
2024-02-10T12:32:42.604Z,0.857143
2024-02-10T12:33:42.604Z,0.857143
2024-02-10T12:34:42.619Z,0.857143
2024-02-10T12:35:42.589Z,0.857143
2024-02-10T12:36:42.628Z,0.857143
2024-02-10T12:37:42.643Z,0.857143
2024-02-10T12:38:42.617Z,0.857143
2024-02-10T12:39:42.618Z,0
2024-02-10T12:40:42.639Z,0
2024-02-10T12:41:42.628Z,0
2024-02-10T12:42:42.664Z,0
2024-02-10T12:43:42.756Z,0
2024-02-10T12:44:42.762Z,0
2024-02-10T12:45:42.662Z,0
2024-02-10T12:46:42.694Z,0
2024-02-10T12:47:42.722Z,0
2024-02-10T12:48:42.704Z,0
2024-02-10T12:49:42.722Z,0
2024-02-10T12:50:42.706Z,0
2024-02-10T12:51:42.700Z,0
2024-02-10T12:52:42.740Z,0
2024-02-10T12:53:42.708Z,0
2024-02-10T12:54:42.725Z,0
2024-02-10T12:55:42.780Z,0
2024-02-10T12:56:42.738Z,0
2024-02-10T12:57:42.733Z,0
2024-02-10T12:58:42.749Z,0
2024-02-10T12:59:42.730Z,0
2024-02-10T13:00:42.811Z,0
2024-02-10T13:01:42.790Z,0
2024-02-10T13:02:42.755Z,0
2024-02-10T13:03:42.871Z,0
2024-02-10T13:04:42.874Z,0
2024-02-10T13:05:42.857Z,0
2024-02-10T13:06:42.816Z,0
2024-02-10T13:07:42.830Z,0
2024-02-10T13:08:42.799Z,0
2024-02-10T13:09:42.798Z,0
2024-02-10T13:10:42.838Z,0
2024-02-10T13:11:42.805Z,0.857143
2024-02-10T13:12:42.807Z,0.857143
2024-02-10T13:13:42.863Z,0.857143
2024-02-10T13:14:42.853Z,0.857143
2024-02-10T13:15:43.094Z,0.857143
2024-02-10T13:16:42.883Z,0.857143
2024-02-10T13:17:42.947Z,0.857143
2024-02-10T13:19:42.961Z,0.857143
2024-02-10T13:20:42.985Z,0
2024-02-10T13:21:42.895Z,0
2024-02-10T13:22:42.935Z,0
2024-02-10T13:23:42.923Z,0
2024-02-10T13:24:42.931Z,0
2024-02-10T13:25:42.951Z,0
2024-02-10T13:26:42.919Z,0
2024-02-10T13:27:42.925Z,0
2024-02-10T13:28:43.190Z,0
2024-02-10T13:29:42.949Z,0
2024-02-10T13:30:42.952Z,0
2024-02-10T13:31:42.984Z,0
2024-02-10T13:32:43.002Z,0
2024-02-10T13:33:43.608Z,0
2024-02-10T13:34:55.964Z,0
2024-02-10T13:35:43.113Z,0
2024-02-10T13:36:43.025Z,0
2024-02-10T13:37:43.009Z,0
2024-02-10T13:38:43.014Z,0
2024-02-10T13:39:43.014Z,0
2024-02-10T13:40:43.008Z,0
2024-02-10T13:41:43.014Z,0
2024-02-10T13:42:43.033Z,0
2024-02-10T13:43:43.160Z,0
2024-02-10T13:44:43.049Z,0
2024-02-10T13:45:43.055Z,0
2024-02-10T13:46:43.125Z,0
2024-02-10T13:47:43.096Z,0
2024-02-10T13:48:43.132Z,0
2024-02-10T13:49:43.104Z,0
2024-02-10T13:50:43.084Z,0
2024-02-10T13:51:43.088Z,0
2024-02-10T13:52:43.168Z,0
2024-02-10T13:53:43.103Z,0
2024-02-10T13:54:43.102Z,0
2024-02-10T13:55:43.143Z,0
2024-02-10T13:56:43.116Z,0
2024-02-10T13:57:43.134Z,0
2024-02-10T13:58:43.176Z,0
2024-02-10T13:59:43.145Z,0
2024-02-10T14:00:43.142Z,0
2024-02-10T14:01:43.205Z,0
2024-02-10T14:02:43.184Z,0
2024-02-10T14:03:43.170Z,0
2024-02-10T14:04:43.406Z,0
2024-02-10T14:05:43.720Z,0
2024-02-10T14:06:43.198Z,0
2024-02-10T14:07:43.223Z,0
2024-02-10T14:08:43.772Z,0
2024-02-10T14:09:43.217Z,0
2024-02-10T14:10:43.282Z,0
2024-02-10T14:11:43.261Z,0
2024-02-10T14:12:43.234Z,0
2024-02-10T14:13:43.323Z,0
2024-02-10T14:14:43.261Z,0
2024-02-10T14:15:43.283Z,0
2024-02-10T14:16:43.304Z,0
2024-02-10T14:17:43.295Z,0
2024-02-10T14:18:43.359Z,0
2024-02-10T14:19:43.321Z,0
2024-02-10T14:20:43.292Z,0
2024-02-10T14:21:43.290Z,0
2024-02-10T14:22:43.323Z,0
2024-02-10T14:23:43.296Z,0
2024-02-10T14:24:43.312Z,0
2024-02-10T14:25:43.368Z,0
2024-02-10T14:26:44.027Z,0
2024-02-10T14:27:43.325Z,0
2024-02-10T14:28:43.343Z,0
2024-02-10T14:29:43.338Z,0
2024-02-10T14:30:43.389Z,0
2024-02-10T14:31:43.416Z,0
2024-02-10T14:32:43.377Z,0
2024-02-10T14:33:43.437Z,0
2024-02-10T14:34:43.393Z,0
2024-02-10T14:35:43.390Z,0
2024-02-10T14:36:43.626Z,0
2024-02-10T14:37:43.745Z,0
2024-02-10T14:38:43.419Z,0
2024-02-10T14:39:43.410Z,0
2024-02-10T14:40:43.500Z,0
2024-02-10T14:41:43.429Z,0
2024-02-10T14:42:43.443Z,0
2024-02-10T14:43:43.498Z,0
2024-02-10T14:44:43.463Z,0
2024-02-10T14:45:43.452Z,0
2024-02-10T14:46:43.499Z,0
2024-02-10T14:47:43.539Z,0
2024-02-10T14:48:43.559Z,0
2024-02-10T14:49:43.604Z,0
2024-02-10T14:50:43.537Z,0
2024-02-10T14:51:43.517Z,0
2024-02-10T14:52:43.560Z,0
2024-02-10T14:53:43.595Z,0
2024-02-10T14:54:43.545Z,0
2024-02-10T14:55:43.554Z,0
2024-02-10T14:56:43.562Z,0
2024-02-10T14:57:43.568Z,0
2024-02-10T14:58:43.659Z,0
2024-02-10T14:59:43.589Z,0
2024-02-10T15:00:43.607Z,0
2024-02-10T15:01:43.635Z,0
2024-02-10T15:02:43.583Z,0
2024-02-10T15:03:43.671Z,0
2024-02-10T15:04:43.618Z,0
2024-02-10T15:05:43.624Z,0
2024-02-10T15:06:43.634Z,0
2024-02-10T15:07:43.680Z,0
2024-02-10T15:08:43.666Z,0
2024-02-10T15:09:43.663Z,0
2024-02-10T15:10:43.719Z,0
2024-02-10T15:11:43.675Z,0
2024-02-10T15:12:43.688Z,0
2024-02-10T15:13:43.693Z,0
2024-02-10T15:14:43.691Z,0
2024-02-10T15:15:43.704Z,0
2024-02-10T15:16:43.725Z,0
2024-02-10T15:17:43.770Z,0
2024-02-10T15:18:43.753Z,0
2024-02-10T15:19:43.729Z,0
2024-02-10T15:20:43.738Z,0
2024-02-10T15:21:43.756Z,0
2024-02-10T15:22:43.866Z,0
2024-02-10T15:23:43.754Z,0
2024-02-10T15:24:43.757Z,0
2024-02-10T15:25:43.841Z,0
2024-02-10T15:26:43.783Z,0
2024-02-10T15:27:43.811Z,0
2024-02-10T15:28:43.810Z,0
2024-02-10T15:29:43.786Z,0
2024-02-10T15:30:43.802Z,0
2024-02-10T15:31:43.834Z,0
2024-02-10T15:32:43.857Z,0
2024-02-10T15:33:43.868Z,0
2024-02-10T15:34:51.462Z,0
2024-02-10T15:35:43.883Z,0
2024-02-10T15:36:43.851Z,0
2024-02-10T15:37:43.927Z,0
2024-02-10T15:38:43.854Z,0
2024-02-10T15:39:43.866Z,0
2024-02-10T15:40:43.895Z,0
2024-02-10T15:41:43.883Z,0
2024-02-10T15:42:43.869Z,0
2024-02-10T15:43:43.941Z,0
2024-02-10T15:44:43.894Z,0
2024-02-10T15:45:43.898Z,0
2024-02-10T15:46:43.941Z,0
2024-02-10T15:47:44.011Z,0
2024-02-10T15:48:43.967Z,0
2024-02-10T15:49:44.007Z,0
2024-02-10T15:50:43.974Z,0
2024-02-10T15:51:43.996Z,0
2024-02-10T15:52:44.013Z,0
2024-02-10T15:53:43.978Z,0
2024-02-10T15:54:43.978Z,0
2024-02-10T15:55:44.023Z,0
2024-02-10T15:56:43.984Z,0
2024-02-10T15:57:43.984Z,0
2024-02-10T15:58:44.047Z,0
2024-02-10T15:59:43.999Z,0
2024-02-10T16:00:44.062Z,0
2024-02-10T16:01:44.057Z,0
2024-02-10T16:02:44.086Z,0
2024-02-10T16:03:44.048Z,0
2024-02-10T16:04:44.096Z,0
2024-02-10T16:05:44.114Z,0
2024-02-10T16:06:44.052Z,0
2024-02-10T16:07:44.086Z,0
2024-02-10T16:08:44.064Z,0
2024-02-10T16:09:44.085Z,0
2024-02-10T16:10:44.137Z,0
2024-02-10T16:11:44.078Z,0
2024-02-10T16:12:44.099Z,0
2024-02-10T16:13:44.152Z,0
2024-02-10T16:14:44.149Z,0
2024-02-10T16:15:44.221Z,0
2024-02-10T16:16:44.193Z,0
2024-02-10T16:17:44.184Z,0
2024-02-10T16:18:44.198Z,0
2024-02-10T16:19:44.201Z,0
2024-02-10T16:20:44.167Z,0
2024-02-10T16:21:44.174Z,0
2024-02-10T16:22:44.196Z,0
2024-02-10T16:23:44.213Z,0
2024-02-10T16:24:44.186Z,0
2024-02-10T16:25:44.281Z,0
2024-02-10T16:26:44.205Z,0
2024-02-10T16:27:44.220Z,0
2024-02-10T16:28:44.284Z,0
2024-02-10T16:29:44.234Z,0
2024-02-10T16:30:44.259Z,0
2024-02-10T16:31:44.289Z,0
2024-02-10T16:32:44.316Z,0
2024-02-10T16:33:44.357Z,0
2024-02-10T16:34:44.293Z,0
2024-02-10T16:35:44.277Z,0
2024-02-10T16:36:44.285Z,0
2024-02-10T16:37:44.334Z,0
2024-02-10T16:38:44.379Z,0
2024-02-10T16:39:44.294Z,0
2024-02-10T16:40:46.447Z,0
2024-02-10T16:41:44.296Z,0
2024-02-10T16:42:44.325Z,0
2024-02-10T16:43:44.435Z,0
2024-02-10T16:44:44.330Z,0
2024-02-10T16:45:44.341Z,0
2024-02-10T16:46:44.378Z,0
2024-02-10T16:47:44.398Z,0
2024-02-10T16:48:44.429Z,0
2024-02-10T16:49:44.396Z,0
2024-02-10T16:50:44.369Z,0
2024-02-10T16:51:44.367Z,0
2024-02-10T16:52:44.425Z,0
2024-02-10T16:53:44.397Z,0
2024-02-10T16:54:44.388Z,0
2024-02-10T16:55:44.460Z,0
2024-02-10T16:56:44.397Z,0
2024-02-10T16:57:44.425Z,0
2024-02-10T16:58:44.438Z,0
2024-02-10T16:59:44.427Z,0
2024-02-10T17:00:44.493Z,0
2024-02-10T17:01:44.490Z,0
2024-02-10T17:02:44.454Z,0
2024-02-10T17:03:44.474Z,0
2024-02-10T17:04:44.507Z,0
2024-02-10T17:05:44.618Z,0
2024-02-10T17:06:44.522Z,0
2024-02-10T17:07:44.499Z,0
2024-02-10T17:08:44.485Z,0
2024-02-10T17:09:44.486Z,0
2024-02-10T17:10:44.529Z,0
2024-02-10T17:11:44.526Z,0
2024-02-10T17:12:44.522Z,0
2024-02-10T17:13:44.560Z,0
2024-02-10T17:14:44.537Z,0
2024-02-10T17:15:44.542Z,0
2024-02-10T17:16:44.590Z,0
2024-02-10T17:17:44.678Z,0
2024-02-10T17:18:44.630Z,0
2024-02-10T17:19:44.788Z,0
2024-02-10T17:20:44.584Z,0
2024-02-10T17:21:44.602Z,0
2024-02-10T17:22:44.597Z,0
2024-02-10T17:23:44.592Z,0
2024-02-10T17:24:44.591Z,0
2024-02-10T17:25:44.729Z,0
2024-02-10T17:26:44.608Z,0
2024-02-10T17:27:44.604Z,0
2024-02-10T17:28:44.635Z,0
2024-02-10T17:29:44.633Z,0
2024-02-10T17:30:44.668Z,0
